createdAt,value
2022-09-02T00:01:24.880Z,8.14
2022-09-02T00:03:55.114Z,8.12
2022-09-02T00:06:21.707Z,8.08
2022-09-02T00:08:48.271Z,8.08
2022-09-02T00:11:18.268Z,8.06
2022-09-02T00:13:45.757Z,8.07
2022-09-02T00:16:12.780Z,8.04
2022-09-02T00:18:44.930Z,8.03
2022-09-02T00:21:14.278Z,7.99
2022-09-02T00:23:42.549Z,8.00
2022-09-02T00:26:09.677Z,8.01
2022-09-02T00:28:36.538Z,7.98
2022-09-02T00:31:03.142Z,7.92
2022-09-02T00:33:31.624Z,7.88
2022-09-02T00:36:04.608Z,7.82
2022-09-02T00:38:35.626Z,7.81
2022-09-02T00:41:05.905Z,7.79
2022-09-02T00:43:55.626Z,7.79
2022-09-02T00:46:25.138Z,7.82
2022-09-02T00:49:16.210Z,7.83
2022-09-02T00:52:05.687Z,7.78
2022-09-02T00:54:34.840Z,7.69
2022-09-02T00:57:01.836Z,7.65
2022-09-02T00:59:40.572Z,7.65
2022-09-02T01:02:08.293Z,7.58
2022-09-02T01:04:35.408Z,7.56
2022-09-02T01:07:03.381Z,7.56
2022-09-02T01:09:33.428Z,7.50
2022-09-02T01:12:03.175Z,7.49
2022-09-02T01:14:30.468Z,7.45
2022-09-02T01:17:02.746Z,7.41
2022-09-02T01:19:36.737Z,7.40
2022-09-02T01:22:06.515Z,7.43
2022-09-02T01:24:34.781Z,7.40
2022-09-02T01:27:01.491Z,7.36
2022-09-02T01:29:29.266Z,7.31
2022-09-02T01:31:56.062Z,7.31
2022-09-02T01:34:22.921Z,7.30
2022-09-02T01:36:49.698Z,7.26
2022-09-02T01:39:16.742Z,7.26
2022-09-02T01:41:43.580Z,7.22
2022-09-02T01:44:10.757Z,7.23
2022-09-02T01:46:37.758Z,7.24
2022-09-02T01:49:05.095Z,7.21
2022-09-02T01:51:31.944Z,7.17
2022-09-02T01:53:58.636Z,7.12
2022-09-02T01:56:25.261Z,7.12
2022-09-02T01:58:51.813Z,7.12
2022-09-02T02:01:19.532Z,7.09
2022-09-02T02:03:46.348Z,7.04
2022-09-02T02:06:16.538Z,7.01
2022-09-02T02:08:44.276Z,7.01
2022-09-02T02:11:11.345Z,6.99
2022-09-02T02:13:38.697Z,6.99
2022-09-02T02:16:06.353Z,6.96
2022-09-02T02:18:33.070Z,6.95
2022-09-02T02:20:59.656Z,6.97
2022-09-02T02:23:26.248Z,6.94
2022-09-02T02:25:52.931Z,6.97
2022-09-02T02:28:19.593Z,6.98
2022-09-02T02:30:46.346Z,6.95
2022-09-02T02:33:13.637Z,6.94
2022-09-02T02:35:41.335Z,6.91
2022-09-02T02:38:08.524Z,6.85
2022-09-02T02:40:35.230Z,6.80
2022-09-02T02:43:01.904Z,6.74
2022-09-02T02:45:29.633Z,6.70
2022-09-02T02:47:56.221Z,6.68
2022-09-02T02:50:23.585Z,6.68
2022-09-02T02:52:50.942Z,6.65
2022-09-02T02:55:17.963Z,6.60
2022-09-02T02:57:44.979Z,6.61
2022-09-02T03:00:13.975Z,6.60
2022-09-02T03:02:40.940Z,6.56
2022-09-02T03:05:09.979Z,6.54
2022-09-02T03:07:36.545Z,6.49
2022-09-02T03:10:08.328Z,6.47
2022-09-02T03:12:37.273Z,6.45
2022-09-02T03:15:04.804Z,6.43
2022-09-02T03:17:31.530Z,6.38
2022-09-02T03:19:59.198Z,6.35
2022-09-02T03:22:27.714Z,6.36
2022-09-02T03:24:54.506Z,6.35
2022-09-02T03:27:21.090Z,6.37
2022-09-02T03:29:47.682Z,6.35
2022-09-02T03:32:14.857Z,6.30
2022-09-02T03:34:42.438Z,6.27
2022-09-02T03:37:09.445Z,6.24
2022-09-02T03:39:38.510Z,6.19
2022-09-02T03:42:05.641Z,6.18
2022-09-02T03:44:34.287Z,6.15
2022-09-02T03:47:01.057Z,6.11
2022-09-02T03:49:28.286Z,6.09
2022-09-02T03:51:55.131Z,6.07
2022-09-02T03:54:21.751Z,6.10
2022-09-02T03:56:48.717Z,6.11
2022-09-02T03:59:15.294Z,6.08
2022-09-02T04:01:42.331Z,6.12
2022-09-02T04:04:09.080Z,6.18
2022-09-02T04:06:35.898Z,6.16
2022-09-02T04:09:03.281Z,6.11
2022-09-02T04:11:30.162Z,6.08
2022-09-02T04:13:56.803Z,6.05
2022-09-02T04:16:31.687Z,6.09
2022-09-02T04:19:02.025Z,6.19
2022-09-02T04:21:31.938Z,6.22
2022-09-02T04:23:58.480Z,6.27
2022-09-02T04:26:25.026Z,6.27
2022-09-02T04:28:52.004Z,6.31
2022-09-02T04:31:20.953Z,6.38
2022-09-02T04:33:48.595Z,6.45
2022-09-02T04:36:18.539Z,6.52
2022-09-02T04:38:47.808Z,6.56
2022-09-02T04:41:22.893Z,6.56
2022-09-02T04:43:51.439Z,6.49
2022-09-02T04:46:19.039Z,6.49
2022-09-02T04:48:55.084Z,6.50
2022-09-02T04:51:25.293Z,6.48
2022-09-02T04:53:53.487Z,6.46
2022-09-02T04:56:25.592Z,6.44
2022-09-02T04:58:53.297Z,6.45
2022-09-02T05:01:26.111Z,6.45
2022-09-02T05:03:54.114Z,6.47
2022-09-02T05:06:23.854Z,6.47
2022-09-02T05:08:50.583Z,6.51
2022-09-02T05:11:20.370Z,6.55
2022-09-02T05:13:54.315Z,6.57
2022-09-02T05:16:27.749Z,6.60
2022-09-02T05:18:54.765Z,6.63
2022-09-02T05:21:23.152Z,6.65
2022-09-02T05:23:54.489Z,6.69
2022-09-02T05:26:22.138Z,6.72
2022-09-02T05:28:48.698Z,6.78
2022-09-02T05:31:17.936Z,6.81
2022-09-02T05:33:45.352Z,6.85
2022-09-02T05:36:19.145Z,6.89
2022-09-02T05:38:45.895Z,6.94
2022-09-02T05:41:16.071Z,6.99
2022-09-02T05:43:48.363Z,7.03
2022-09-02T05:46:17.998Z,7.12
2022-09-02T05:49:04.261Z,7.18
2022-09-02T05:51:30.935Z,7.26
2022-09-02T05:53:59.257Z,7.34
2022-09-02T05:56:27.596Z,7.42
2022-09-02T05:58:58.827Z,7.51
2022-09-02T06:01:27.318Z,7.58
2022-09-02T06:03:53.852Z,7.67
2022-09-02T06:06:22.994Z,7.75
2022-09-02T06:08:49.736Z,7.80
2022-09-02T06:11:18.087Z,7.88
2022-09-02T06:13:44.861Z,7.97
2022-09-02T06:16:15.269Z,8.06
2022-09-02T06:18:42.660Z,8.16
2022-09-02T06:21:09.806Z,8.23
2022-09-02T06:23:39.109Z,8.34
2022-09-02T06:26:09.712Z,8.43
2022-09-02T06:28:36.716Z,8.51
2022-09-02T06:31:13.290Z,8.63
2022-09-02T06:33:39.925Z,8.77
2022-09-02T06:36:08.162Z,8.91
2022-09-02T06:38:45.964Z,9.00
2022-09-02T06:41:19.730Z,9.08
2022-09-02T06:43:46.427Z,9.18
2022-09-02T06:46:22.228Z,9.30
2022-09-02T06:48:50.260Z,9.40
2022-09-02T06:51:22.432Z,9.53
2022-09-02T06:53:48.996Z,9.66
2022-09-02T06:56:15.821Z,9.75
2022-09-02T06:58:42.477Z,9.89
2022-09-02T07:01:17.103Z,9.99
2022-09-02T07:04:02.100Z,10.13
2022-09-02T07:06:28.727Z,10.26
2022-09-02T07:08:55.246Z,10.41
2022-09-02T07:11:23.985Z,10.62
2022-09-02T07:13:50.977Z,10.98
2022-09-02T07:16:22.713Z,11.15
2022-09-02T07:18:53.715Z,11.66
2022-09-02T07:21:20.463Z,12.01
2022-09-02T07:23:47.051Z,12.28
2022-09-02T07:26:15.544Z,12.60
2022-09-02T07:28:43.247Z,12.74
2022-09-02T07:31:16.002Z,12.92
2022-09-02T07:33:45.084Z,13.10
2022-09-02T07:36:16.754Z,13.17
2022-09-02T07:38:43.355Z,13.26
2022-09-02T07:41:10.694Z,13.41
2022-09-02T07:43:38.756Z,13.48
2022-09-02T07:46:06.152Z,13.62
2022-09-02T07:48:33.967Z,13.73
2022-09-02T07:51:01.153Z,13.82
2022-09-02T07:53:28.422Z,13.85
2022-09-02T07:55:55.040Z,13.97
2022-09-02T07:58:22.633Z,14.00
2022-09-02T08:00:50.133Z,14.08
2022-09-02T08:03:17.719Z,14.21
2022-09-02T08:05:47.144Z,14.28
2022-09-02T08:08:16.726Z,14.36
2022-09-02T08:10:43.344Z,14.41
2022-09-02T08:13:10.608Z,14.50
2022-09-02T08:15:39.001Z,14.57
2022-09-02T08:18:07.298Z,14.70
2022-09-02T08:20:35.612Z,14.78
2022-09-02T08:23:11.141Z,14.82
2022-09-02T08:25:39.104Z,14.92
2022-09-02T08:28:05.825Z,14.97
2022-09-02T08:30:32.676Z,15.05
2022-09-02T08:32:59.885Z,15.15
2022-09-02T08:35:26.646Z,15.27
2022-09-02T08:37:53.293Z,15.34
2022-09-02T08:40:23.418Z,15.45
2022-09-02T08:42:53.469Z,15.50
2022-09-02T08:45:32.512Z,15.58
2022-09-02T08:48:04.748Z,15.63
2022-09-02T08:50:33.027Z,15.73
2022-09-02T08:53:03.728Z,15.80
2022-09-02T08:55:44.455Z,15.81
2022-09-02T08:58:17.020Z,15.82
2022-09-02T09:00:46.187Z,15.84
2022-09-02T09:03:28.660Z,15.86
2022-09-02T09:06:19.587Z,15.92
2022-09-02T09:09:00.298Z,15.96
2022-09-02T09:11:49.063Z,16.01
2022-09-02T09:14:45.247Z,16.01
2022-09-02T09:17:28.768Z,16.05
2022-09-02T09:20:00.618Z,16.11
2022-09-02T09:22:37.440Z,16.17
2022-09-02T09:25:11.670Z,16.27
2022-09-02T09:27:38.504Z,16.36
2022-09-02T09:30:10.482Z,16.42
2022-09-02T09:32:46.460Z,16.44
2022-09-02T09:35:17.969Z,16.40
2022-09-02T09:37:48.121Z,16.40
2022-09-02T09:40:23.353Z,16.39
2022-09-02T09:43:14.694Z,16.38
2022-09-02T09:45:50.058Z,16.36
2022-09-02T09:48:16.621Z,16.36
2022-09-02T09:50:45.396Z,16.42
2022-09-02T09:53:22.829Z,16.46
2022-09-02T09:56:04.115Z,16.53
2022-09-02T09:58:39.649Z,16.60
2022-09-02T10:01:18.618Z,16.70
2022-09-02T10:04:12.216Z,16.80
2022-09-02T10:06:48.925Z,16.88
2022-09-02T10:09:15.461Z,16.93
2022-09-02T10:12:01.722Z,16.98
2022-09-02T10:14:58.034Z,17.00
2022-09-02T10:17:57.979Z,17.00
2022-09-02T10:21:04.906Z,17.02
2022-09-02T10:24:27.175Z,17.07
2022-09-02T10:26:57.436Z,17.13
2022-09-02T10:29:42.111Z,17.13
2022-09-02T10:32:27.552Z,17.14
2022-09-02T10:35:15.988Z,17.15
2022-09-02T10:38:01.876Z,17.15
2022-09-02T10:40:41.717Z,17.15
2022-09-02T10:43:11.852Z,17.17
2022-09-02T10:45:51.128Z,17.13
2022-09-02T10:48:35.904Z,17.11
2022-09-02T10:51:37.430Z,17.07
2022-09-02T10:54:10.925Z,17.10
2022-09-02T10:56:52.457Z,17.12
2022-09-02T10:59:26.826Z,17.13
2022-09-02T11:02:08.351Z,17.09
2022-09-02T11:04:56.758Z,17.05
2022-09-02T11:07:34.237Z,17.07
2022-09-02T11:10:09.234Z,17.04
2022-09-02T11:12:45.454Z,17.06
2022-09-02T11:15:18.930Z,17.09
2022-09-02T11:18:04.990Z,17.11
2022-09-02T11:20:50.848Z,17.15
2022-09-02T11:23:29.104Z,17.17
2022-09-02T11:26:04.974Z,17.15
2022-09-02T11:28:40.575Z,17.21
2022-09-02T11:31:19.194Z,17.28
2022-09-02T11:33:55.520Z,17.43
2022-09-02T11:36:22.722Z,17.53
2022-09-02T11:38:58.952Z,17.64
2022-09-02T11:41:38.035Z,17.65
2022-09-02T11:44:11.331Z,17.63
2022-09-02T11:46:49.249Z,17.68
2022-09-02T11:49:34.275Z,17.67
2022-09-02T11:52:19.557Z,17.65
2022-09-02T11:54:49.154Z,17.64
2022-09-02T11:57:23.052Z,17.67
2022-09-02T11:59:52.448Z,17.69
2022-09-02T12:02:36.256Z,17.70
2022-09-02T12:05:29.897Z,17.70
2022-09-02T12:08:04.991Z,17.72
2022-09-02T12:10:42.100Z,17.76
2022-09-02T12:13:11.398Z,17.76
2022-09-02T12:15:40.713Z,17.78
2022-09-02T12:18:12.169Z,17.75
2022-09-02T12:20:38.928Z,17.80
2022-09-02T12:23:08.232Z,17.83
2022-09-02T12:25:47.367Z,17.84
2022-09-02T12:28:19.206Z,17.83
2022-09-02T12:30:56.524Z,17.82
2022-09-02T12:33:37.664Z,17.82
2022-09-02T12:36:06.438Z,17.84
2022-09-02T12:38:40.026Z,17.84
2022-09-02T12:41:13.293Z,17.85
2022-09-02T12:43:44.667Z,17.86
2022-09-02T12:46:17.596Z,17.87
2022-09-02T12:49:03.242Z,17.80
2022-09-02T12:51:57.151Z,17.80
2022-09-02T12:54:38.581Z,17.85
2022-09-02T12:57:07.177Z,17.88
2022-09-02T12:59:37.477Z,17.92
2022-09-02T13:02:30.257Z,17.95
2022-09-02T13:05:16.144Z,17.94
2022-09-02T13:07:46.636Z,17.90
2022-09-02T13:10:50.570Z,17.86
2022-09-02T13:13:35.274Z,17.84
2022-09-02T13:16:19.000Z,17.88
2022-09-02T13:19:20.323Z,17.94
2022-09-02T13:22:14.618Z,17.99
2022-09-02T13:25:00.010Z,18.01
2022-09-02T13:27:45.080Z,18.03
2022-09-02T13:30:19.536Z,18.04
2022-09-02T13:32:56.631Z,17.99
2022-09-02T13:35:28.349Z,17.93
2022-09-02T13:37:59.810Z,17.92
2022-09-02T13:40:35.528Z,17.94
2022-09-02T13:43:24.039Z,17.95
2022-09-02T13:45:52.827Z,17.95
2022-09-02T13:48:22.964Z,17.92
2022-09-02T13:50:52.596Z,17.95
2022-09-02T13:56:25.611Z,17.93
2022-09-02T13:58:56.736Z,17.85
2022-09-02T14:01:33.175Z,17.80
2022-09-02T14:06:37.294Z,17.82
2022-09-02T14:09:07.753Z,17.77
2022-09-02T14:11:46.366Z,17.78
2022-09-02T14:14:18.636Z,17.81
2022-09-02T14:16:45.275Z,17.80
2022-09-02T14:19:24.641Z,17.81
2022-09-02T14:21:52.778Z,17.84
2022-09-02T14:24:23.887Z,17.83
2022-09-02T14:26:53.656Z,17.81
2022-09-02T14:29:21.599Z,17.80
2022-09-02T14:32:23.146Z,17.70
2022-09-02T14:35:09.202Z,17.68
2022-09-02T14:37:55.946Z,17.68
2022-09-02T14:40:37.860Z,17.63
2022-09-02T14:43:10.922Z,17.58
2022-09-02T14:45:37.701Z,17.56
2022-09-02T14:48:16.105Z,17.54
2022-09-02T14:50:43.255Z,17.54
2022-09-02T14:53:10.929Z,17.51
2022-09-02T14:55:55.164Z,17.49
2022-09-02T14:58:26.858Z,17.49
2022-09-02T15:00:55.962Z,17.46
2022-09-02T15:03:23.669Z,17.48
2022-09-02T15:05:52.384Z,17.51
2022-09-02T15:08:19.570Z,17.50
2022-09-02T15:10:46.641Z,17.49
2022-09-02T15:13:26.295Z,17.51
2022-09-02T15:15:53.223Z,17.47
2022-09-02T15:18:19.843Z,17.45
2022-09-02T15:20:46.429Z,17.42
2022-09-02T15:23:12.954Z,17.41
2022-09-02T15:25:39.859Z,17.37
2022-09-02T15:28:06.459Z,17.37
2022-09-02T15:30:36.687Z,17.37
2022-09-02T15:33:04.702Z,17.36
2022-09-02T15:35:35.059Z,17.35
2022-09-02T15:38:03.225Z,17.37
2022-09-02T15:40:31.726Z,17.37
2022-09-02T15:43:00.079Z,17.37
2022-09-02T15:45:28.144Z,17.37
2022-09-02T15:47:58.528Z,17.33
2022-09-02T15:50:26.276Z,17.33
2022-09-02T15:52:56.025Z,17.32
2022-09-02T15:55:29.168Z,17.33
2022-09-02T15:57:56.511Z,17.34
2022-09-02T16:00:23.491Z,17.30
2022-09-02T16:02:54.530Z,17.26
2022-09-02T16:05:21.404Z,17.22
2022-09-02T16:07:48.620Z,17.20
2022-09-02T16:10:15.302Z,17.17
2022-09-02T16:12:42.204Z,17.17
2022-09-02T16:15:09.217Z,17.14
2022-09-02T16:17:36.090Z,17.08
2022-09-02T16:20:04.092Z,17.06
2022-09-02T16:22:30.737Z,17.03
2022-09-02T16:24:57.268Z,17.01
2022-09-02T16:27:43.755Z,17.05
2022-09-02T16:30:10.775Z,17.08
2022-09-02T16:32:37.893Z,17.07
2022-09-02T16:35:04.727Z,17.05
2022-09-02T16:37:31.302Z,17.02
2022-09-02T16:39:57.940Z,17.00
2022-09-02T16:42:24.667Z,16.99
2022-09-02T16:44:51.855Z,16.98
2022-09-02T16:47:18.641Z,16.98
2022-09-02T16:49:46.474Z,16.92
2022-09-02T16:52:13.559Z,16.90
2022-09-02T16:54:41.264Z,16.90
2022-09-02T16:57:08.143Z,16.87
2022-09-02T16:59:34.763Z,16.83
2022-09-02T17:02:01.533Z,16.82
2022-09-02T17:04:28.161Z,16.74
2022-09-02T17:06:56.535Z,16.71
2022-09-02T17:09:23.057Z,16.73
2022-09-02T17:11:49.578Z,16.75
2022-09-02T17:14:17.984Z,16.78
2022-09-02T17:16:47.598Z,16.72
2022-09-02T17:19:20.959Z,16.66
2022-09-02T17:21:50.936Z,16.57
2022-09-02T17:24:18.829Z,16.51
2022-09-02T17:26:48.424Z,16.49
2022-09-02T17:29:46.773Z,16.49
2022-09-02T17:32:04.777Z,16.47
2022-09-02T17:34:33.687Z,16.45
2022-09-02T17:37:00.357Z,16.46
2022-09-02T17:39:27.014Z,16.42
2022-09-02T17:41:57.617Z,16.39
2022-09-02T17:44:27.202Z,16.39
2022-09-02T17:46:55.932Z,16.33
2022-09-02T17:49:22.812Z,16.32
2022-09-02T17:51:49.648Z,16.26
2022-09-02T17:54:16.289Z,16.26
2022-09-02T17:57:00.880Z,16.28
2022-09-02T17:59:32.475Z,16.26
2022-09-02T18:02:36.346Z,16.24
2022-09-02T18:05:21.688Z,16.22
2022-09-02T18:08:03.422Z,16.19
2022-09-02T18:10:33.606Z,16.15
2022-09-02T18:13:09.509Z,16.12
2022-09-02T18:15:58.982Z,16.00
2022-09-02T18:18:28.113Z,15.98
2022-09-02T18:21:04.027Z,16.02
2022-09-02T18:24:21.155Z,15.98
2022-09-02T18:26:56.710Z,15.99
2022-09-02T18:29:46.400Z,16.05
2022-09-02T18:32:40.899Z,16.09
2022-09-02T18:35:35.018Z,16.08
2022-09-02T18:38:28.537Z,16.02
2022-09-02T18:41:11.102Z,16.03
2022-09-02T18:43:59.444Z,15.99
2022-09-02T18:46:33.168Z,16.00
2022-09-02T18:49:03.212Z,16.04
2022-09-02T18:51:42.453Z,16.06
2022-09-02T18:54:23.012Z,15.99
2022-09-02T18:56:57.397Z,15.89
2022-09-02T18:59:34.056Z,15.87
2022-09-02T19:02:15.633Z,15.85
2022-09-02T19:04:42.623Z,15.85
2022-09-02T19:07:30.212Z,15.84
2022-09-02T19:10:01.092Z,15.83
2022-09-02T19:12:32.702Z,15.77
2022-09-02T19:15:00.800Z,15.75
2022-09-02T19:17:27.383Z,15.69
2022-09-02T19:19:54.053Z,15.66
2022-09-02T19:22:27.094Z,15.62
2022-09-02T19:25:02.997Z,15.60
2022-09-02T19:27:33.673Z,15.61
2022-09-02T19:30:14.828Z,15.62
2022-09-02T19:32:48.108Z,15.63
2022-09-02T19:35:18.302Z,15.60
2022-09-02T19:37:51.417Z,15.53
2022-09-02T19:40:28.608Z,15.48
2022-09-02T19:42:55.592Z,15.48
2022-09-02T19:45:23.084Z,15.50
2022-09-02T19:48:06.659Z,15.54
2022-09-02T19:50:36.202Z,15.54
2022-09-02T19:53:02.893Z,15.52
2022-09-02T19:55:29.859Z,15.49
2022-09-02T19:57:56.420Z,15.48
2022-09-02T20:00:23.082Z,15.49
2022-09-02T20:02:51.130Z,15.51
2022-09-02T20:05:18.035Z,15.50
2022-09-02T20:07:44.594Z,15.55
2022-09-02T20:10:11.569Z,15.60
2022-09-02T20:12:38.228Z,15.56
2022-09-02T20:15:06.824Z,15.61
2022-09-02T20:17:33.427Z,15.60
2022-09-02T20:20:08.582Z,15.59
2022-09-02T20:22:35.279Z,15.60
2022-09-02T20:25:01.865Z,15.55
2022-09-02T20:27:47.387Z,15.53
2022-09-02T20:30:16.380Z,15.52
2022-09-02T20:32:59.523Z,15.56
2022-09-02T20:35:44.544Z,15.57
2022-09-02T20:38:29.924Z,15.51
2022-09-02T20:41:19.666Z,15.40
2022-09-02T20:44:06.668Z,15.31
2022-09-02T20:46:58.908Z,15.18
2022-09-02T20:49:35.257Z,15.09
2022-09-02T20:52:20.451Z,15.00
2022-09-02T20:54:54.868Z,14.92
2022-09-02T20:58:19.315Z,14.82
2022-09-02T21:01:08.562Z,14.75
2022-09-02T21:03:59.305Z,14.66
2022-09-02T21:06:30.441Z,14.57
2022-09-02T21:09:05.079Z,14.49
2022-09-02T21:11:40.804Z,14.38
2022-09-02T21:14:16.227Z,14.30
2022-09-02T21:17:05.574Z,14.22
2022-09-02T21:19:39.605Z,14.16
2022-09-02T21:22:22.895Z,14.09
2022-09-02T21:25:06.688Z,14.03
2022-09-02T21:27:37.822Z,13.97
2022-09-02T21:30:08.445Z,13.84
2022-09-02T21:33:02.281Z,13.83
2022-09-02T21:35:35.661Z,13.77
2022-09-02T21:38:04.660Z,13.71
2022-09-02T21:41:05.827Z,13.72
2022-09-02T21:43:35.245Z,13.72
2022-09-02T21:46:28.871Z,13.73
2022-09-02T21:49:12.833Z,13.73
2022-09-02T21:51:53.055Z,13.76
2022-09-02T21:54:25.574Z,13.71
2022-09-02T21:57:01.116Z,13.61
2022-09-02T21:59:49.666Z,13.62
2022-09-02T22:02:25.819Z,13.69
2022-09-02T22:05:06.215Z,13.70
2022-09-02T22:07:55.576Z,13.69
2022-09-02T22:11:17.694Z,13.68
2022-09-02T22:13:45.446Z,13.65
2022-09-02T22:16:46.588Z,13.68
2022-09-02T22:19:13.625Z,13.74
2022-09-02T22:21:48.878Z,13.82
2022-09-02T22:24:27.467Z,13.89
2022-09-02T22:27:13.067Z,13.93
2022-09-02T22:29:50.126Z,13.97
2022-09-02T22:32:20.491Z,14.03
2022-09-02T22:34:59.815Z,14.08
2022-09-02T22:37:38.650Z,14.12
2022-09-02T22:40:09.923Z,14.17
2022-09-02T22:42:39.315Z,14.17
2022-09-02T22:45:31.635Z,14.19
2022-09-02T22:48:53.523Z,14.22
2022-09-02T22:51:47.686Z,14.26
2022-09-02T22:54:14.263Z,14.33
2022-09-02T22:56:49.979Z,14.33
2022-09-02T22:59:29.394Z,14.30
2022-09-02T23:02:05.852Z,14.33
2022-09-02T23:05:30.798Z,14.34
2022-09-02T23:07:57.318Z,14.34
2022-09-02T23:10:26.968Z,14.37
2022-09-02T23:13:14.143Z,14.42
2022-09-02T23:15:55.255Z,14.43
2022-09-02T23:18:29.662Z,14.47
2022-09-02T23:21:05.051Z,14.49
2022-09-02T23:23:40.031Z,14.52
2022-09-02T23:26:16.657Z,14.58
2022-09-02T23:29:14.606Z,14.62
2022-09-02T23:32:25.718Z,14.64
2022-09-02T23:35:04.221Z,14.65
2022-09-02T23:37:36.575Z,14.61
2022-09-02T23:40:14.984Z,14.63
2022-09-02T23:42:41.606Z,14.64
2022-09-02T23:45:32.844Z,14.61
2022-09-02T23:48:11.564Z,14.59
2022-09-02T23:50:47.141Z,14.63
2022-09-02T23:53:30.108Z,14.58
2022-09-02T23:56:33.596Z,14.59
2022-09-02T23:59:15.140Z,14.57
